»·PEaware :: N956HP KSEA-KPDX

N956HP :: KSEA-KPDX

FLIGHT INFORMATION

Flight Status: Arrived
Operator: Privately registered:
United States
More flights under this callsign
Pilot: Herb P. (797)
Aircraft: BEECH AIRCRAFT SUPER KING AIR 350
(B350)
More flights by this aircraft type
Origin: KSEA Seattle-Tacoma Intl
United States
Destination: KPDX Portland Intl
United States
More flights between these airports :: More routes between these airports
Route: SEA7 BUWZO KRATR2
File this flight plan on PilotEdge
Remarks:
Altitude:
(Current/Filed)
19,000ft
Speed:
(Current/Filed)
250kts
Departed: 31-Oct-20 04:41 PM
Arrived: 31-Oct-20 05:19 PM
Distance/Time
Traveled:
112nm/0:38
Distance/Time
To Go:
Arrived

Flight Plot

Page will automatically refresh every two minutes.

Flight plan parsing failed; only flown route is shown


Map Options




Map Legend


Flown Route
Filed Route
Departure Airport
Arrival Airport
Navaid (VOR, NDB)
Fix

Horizontal Profiles

Position Reports

Time Latitude Longitude Heading Altitude Ground
Speed
31-Oct-20 16:20 47.439169 -122.315227 55 352ft 0kts
31-Oct-20 16:21 47.439169 -122.315227 54 352ft 0kts
31-Oct-20 16:22 47.439169 -122.315227 55 352ft 0kts
31-Oct-20 16:23 47.439169 -122.315227 55 352ft 0kts
31-Oct-20 16:24 47.439169 -122.315227 55 352ft 0kts
31-Oct-20 16:25 47.439169 -122.315227 55 352ft 0kts
31-Oct-20 16:26 47.439169 -122.315227 55 352ft 0kts
31-Oct-20 16:27 47.439169 -122.315227 55 352ft 0kts
31-Oct-20 16:28 47.439169 -122.315227 55 352ft 0kts
31-Oct-20 16:29 47.439169 -122.315227 55 352ft 0kts
31-Oct-20 16:30 47.439169 -122.315227 55 352ft 0kts
31-Oct-20 16:31 47.439169 -122.315227 55 352ft 0kts
31-Oct-20 16:32 47.439169 -122.315227 55 352ft 0kts
31-Oct-20 16:33 47.439169 -122.315227 55 352ft 0kts
31-Oct-20 16:34 47.439169 -122.315227 55 352ft 0kts
31-Oct-20 16:35 47.439169 -122.315227 55 352ft 0kts
31-Oct-20 16:36 47.439325 -122.315038 19 353ft 3kts
31-Oct-20 16:37 47.440670 -122.316451 269 352ft 0kts
31-Oct-20 16:38 47.440670 -122.316451 269 352ft 0kts
31-Oct-20 16:39 47.440670 -122.316451 269 352ft 0kts
31-Oct-20 16:40 47.442364 -122.318052 0 346ft 51kts
31-Oct-20 16:41 47.478217 -122.314468 5 1715ft 153kts
31-Oct-20 16:42 47.523136 -122.309639 359 3023ft 189kts
31-Oct-20 16:43 47.572939 -122.318140 309 2979ft 180kts
31-Oct-20 16:44 47.555956 -122.363314 170 3640ft 175kts
31-Oct-20 16:45 47.509195 -122.357236 179 4136ft 174kts
31-Oct-20 16:46 47.460490 -122.352987 180 6313ft 177kts
31-Oct-20 16:47 47.409390 -122.348591 180 8080ft 190kts
31-Oct-20 16:48 47.356431 -122.344043 181 9776ft 193kts
31-Oct-20 16:49 47.302147 -122.339386 182 11593ft 197kts
31-Oct-20 16:50 47.240388 -122.334152 181 12028ft 256kts
31-Oct-20 16:51 47.167698 -122.327896 181 13120ft 252kts
31-Oct-20 16:52 47.100852 -122.322199 183 15109ft 231kts
31-Oct-20 16:53 47.039409 -122.316969 184 17100ft 213kts
31-Oct-20 16:54 46.979814 -122.311941 184 18615ft 219kts
31-Oct-20 16:55 46.917003 -122.309689 187 19410ft 246kts
31-Oct-20 16:56 46.843030 -122.309668 186 19395ft 282kts
31-Oct-20 16:57 46.762152 -122.309644 186 19392ft 297kts
31-Oct-20 16:58 46.678468 -122.309638 186 19390ft 304kts
31-Oct-20 16:59 46.593081 -122.309643 186 19393ft 313kts
31-Oct-20 17:00 46.504951 -122.309637 185 19390ft 320kts
31-Oct-20 17:01 46.417033 -122.309619 185 18523ft 313kts
31-Oct-20 17:02 46.332409 -122.309666 185 15826ft 303kts
31-Oct-20 17:03 46.249604 -122.314444 206 12892ft 291kts
31-Oct-20 17:04 46.176649 -122.354531 205 10878ft 259kts
31-Oct-20 17:05 46.118712 -122.386715 206 11093ft 211kts
31-Oct-20 17:06 46.056573 -122.420827 204 10863ft 275kts
31-Oct-20 17:07 45.981517 -122.461195 204 8897ft 282kts
31-Oct-20 17:08 45.915318 -122.508508 223 7927ft 260kts
31-Oct-20 17:09 45.869947 -122.565603 225 6613ft 237kts
31-Oct-20 17:10 45.822060 -122.626032 225 5172ft 224kts
31-Oct-20 17:11 45.779873 -122.679207 227 5083ft 193kts
31-Oct-20 17:12 45.745085 -122.738929 234 4534ft 201kts
31-Oct-20 17:13 45.701868 -122.785161 166 3083ft 212kts
31-Oct-20 17:14 45.656772 -122.755387 144 2549ft 155kts
31-Oct-20 17:15 45.635961 -122.704057 113 1867ft 145kts
31-Oct-20 17:16 45.617041 -122.653966 114 675ft 135kts
31-Oct-20 17:17 45.599575 -122.608140 115 202ft 134kts
31-Oct-20 17:18 45.589858 -122.582638 123 21ft 17kts
31-Oct-20 17:19 45.586449 -122.581560 187 21ft 0kts

Navigation Log

Ident Type
Flight plan parsing failed, navigation log unavailable